Terminal Aerodrome Forecast
Issued by NWS Grand Forks, ND

Home | Current Version | Previous Version | Text Only | Print | Product List | Glossary Off
Versions: 1 2 3 4 5 6 7 8 9 10 11 12 13 14 15 16 17 18 19 20 21 22 23 24

225
FTUS43 KFGF 032339
TAFGFK
TAF
KGFK 032339Z 0400/0424 15015KT P6SM BKN015 OVC025
      TEMPO 0400/0403 3SM -SN
     FM040500 16012KT P6SM OVC015
     FM041200 19010KT P6SM OVC008
     FM042000 26010KT P6SM BKN010
     FM042200 27009KT P6SM BKN015=

USA.gov is the U.S. government's official web portal to all federal, state and local government web resources and services.